Latest Coastal Weather Observations for King Island Airport

IDT60701

Issued at 6:05 pm EDT Friday 28 November 2014 (issued every 10 minutes, with the page automatically refreshed every 10 minutes)

About coastal observations | Map of coastal stations | Coastal observations for TAS | Marine services | Other Formats
Station Details ID: 098017 Name: KING ISLAND AIRPORT Lat: -39.88 Lon: 143.88 Height: 37.0 m
Data from the previous 72 hours. | See also: Recent months at King Island Airport
Date/Time
EDT
Temp

°C
Wind Pressure Rain
since 9am
mm
Weather Cloud Vis
km
Sea
Height
m
Swell
Dir
 
Speed
knots
Gust
knots
hPa Trend Height
m
Period
s
Dir
28/06:00pm 13.9 SSW 17 22 1021.6 - 0.0 - - 10 - - - -
28/05:30pm 14.4 SSW 16 21 1021.7 - 0.0 - - 10 - - - -
28/05:00pm 14.8 S 15 20 1021.7 - 0.0 - - 10 - - - -
28/04:30pm 15.1 SSW 16 20 1021.7 - 0.0 - - 10 - - - -
28/04:00pm 14.9 SSW 16 22 1021.9 - 0.0 - - 10 - - - -
28/03:30pm 15.4 SSW 15 20 1022.3 - 0.0 - - 10 - - - -
28/03:00pm 16.1 SSW 15 20 1022.4 - 0.0 - - 10 - - - -
28/02:30pm 15.8 SW 15 19 1022.6 - 0.0 - - 10 - - - -
28/02:00pm 15.9 SSW 14 19 1022.7 - 0.0 - - 10 - - - -
28/01:30pm 15.3 SSW 14 20 1023.1 - 0.0 - - 10 - - - -
28/01:00pm 15.8 SSW 17 20 1023.4 - 0.0 - - 10 - - - -
28/12:30pm 15.7 SSW 15 19 1023.5 - 0.0 - - 10 - - - -
28/12:00pm 16.1 SSW 11 17 1023.6 - 0.0 - - 10 - - - -
28/11:30am 15.2 S 9 14 1024.0 - 0.0 - - 10 - - - -
28/11:00am 15.1 S 10 15 1024.2 - 0.0 - - 10 - - - -
28/10:30am 14.8 SSE 10 16 1024.2 - 0.0 - - 10 - - - -
28/10:00am 14.7 SSE 10 17 1024.2 - 0.0 - Partly cloudy 10 - - - -
28/09:30am 14.5 S 11 16 1024.3 - 0.0 - Partly cloudy 10 - - - -
28/09:00am 14.2 SSE 10 16 1024.6 - 0.0 - Mostly clear 10 - - - -
28/08:30am 13.1 S 9 16 1024.5 - 0.0 - Partly cloudy 10 - - - -
28/08:00am 13.1 SSE 9 12 1024.4 - 0.0 - Partly cloudy 10 - - - -
28/07:30am 11.3 S 5 8 1024.4 - 0.0 - Partly cloudy 10 - - - -
28/07:00am 10.1 S 1 5 1024.4 - 0.0 - - 10 - - - -
28/06:30am 8.5 CALM 0 3 1024.3 - 0.0 - Partly cloudy 10 - - - -
28/06:00am 8.2 SSE 4 6 1024.1 - 0.0 - Partly cloudy 10 - - - -
28/05:30am 8.3 S 6 8 1023.8 - 0.0 - - 10 - - - -
28/05:00am 8.3 S 6 8 1023.6 - 0.0 - - 10 - - - -
28/04:30am 8.4 S 5 6 1023.5 - 0.0 - - 10 - - - -
28/04:00am 8.7 S 6 8 1023.3 - 0.0 - - 10 - - - -
28/03:30am 8.5 S 7 10 1023.4 - 0.0 - - 10 - - - -
28/03:00am 8.1 SSE 6 8 1023.6 - 0.0 - - 10 - - - -
28/02:30am 8.6 S 7 10 1023.7 - 0.0 - - 10 - - - -
28/02:00am 8.2 S 7 9 1024.0 - 0.0 - - 10 - - - -
28/01:30am 8.8 S 7 10 1024.1 - 0.0 - - 10 - - - -
28/01:00am 8.6 SSE 7 9 1024.3 - 0.0 - Partly cloudy 10 - - - -
28/12:30am 8.2 SSE 6 8 1024.7 - 0.0 - Partly cloudy 10 - - - -
28/12:00am 8.3 S 6 7 1024.9 - 0.0 - - 10 - - - -
 
Date/Time
EDT
Temp

°C
Wind Pressure Rain
since 9am
mm
Weather Cloud Vis
km
Sea
Height
m
Swell
Dir
 
Speed
knots
Gust
knots
hPa Trend Height
m
Period
s
Dir
27/11:30pm 8.5 S 4 5 1025.0 - 0.0 - - 10 - - - -
27/11:00pm 9.2 S 5 6 1025.2 - 0.0 - - 10 - - - -
27/10:30pm 8.9 SSE 6 7 1025.2 - 0.0 - Partly cloudy 10 - - - -
27/10:00pm 9.0 S 6 8 1025.6 - 0.0 - Partly cloudy 10 - - - -
27/09:30pm 9.5 S 6 8 1025.4 - 0.0 - Partly cloudy 10 - - - -
27/09:00pm 10.4 S 5 6 1025.6 - 0.0 - Partly cloudy 10 - - - -
27/08:30pm 10.6 S 5 9 1025.5 - 0.0 - Partly cloudy 10 - - - -
27/08:00pm 11.9 S 9 13 1025.7 - 0.0 - - 10 - - - -
27/07:30pm 12.7 SSW 14 18 1025.5 - 0.0 - - 10 - - - -
27/07:00pm 13.3 SSW 14 18 1025.3 - 0.0 - - 10 - - - -
27/06:30pm 13.7 SSW 15 19 1025.3 - 0.0 - - 10 - - - -
27/06:00pm 13.9 SSW 15 18 1025.5 - 0.0 - - 10 - - - -
27/05:30pm 14.1 SSW 14 18 1025.3 - 0.0 - - 10 - - - -
27/05:00pm 14.4 SSW 15 19 1025.7 - 0.0 - - 10 - - - -
27/04:30pm 14.8 SSW 16 22 1025.9 - 0.0 - - 10 - - - -
27/04:00pm 14.9 SSW 16 20 1025.9 - 0.0 - - 10 - - - -
27/03:30pm 14.7 SSW 16 23 1025.9 - 0.0 - - 10 - - - -
27/03:00pm 15.1 SSW 15 20 1026.2 - 0.0 - - 10 - - - -
27/02:30pm 15.1 SSW 15 22 1026.3 - 0.0 - - 10 - - - -
27/02:00pm 14.9 SW 15 20 1026.5 - 0.0 - - 10 - - - -
27/01:30pm 15.0 SSW 14 19 1026.6 - 0.0 - - 10 - - - -
27/01:00pm 14.6 SSW 14 19 1026.6 - 0.0 - - 10 - - - -
27/12:30pm 14.5 SSW 12 19 1027.0 - 0.0 - - 10 - - - -
27/12:00pm 14.3 SSW 12 18 1027.2 - 0.0 - Mostly clear 10 - - - -
27/11:30am 14.3 SSW 13 17 1027.2 - 0.0 - Partly cloudy 10 - - - -
27/11:00am 13.8 SSW 13 19 1027.2 - 0.0 - Partly cloudy 10 - - - -
27/10:30am 13.8 SSW 13 19 1027.2 - 0.0 - Partly cloudy 10 - - - -
27/10:00am 13.7 S 11 19 1027.2 - 0.0 - Partly cloudy 10 - - - -
27/09:30am 13.1 SSW 11 16 1027.2 - 0.0 - Partly cloudy 10 - - - -
27/09:00am 12.7 SSW 13 17 1027.1 - 0.0 - Mostly cloudy 10 - - - -
27/08:30am 13.0 SSW 12 18 1027.0 - 0.0 - Partly cloudy 10 - - - -
27/08:00am 12.3 S 9 16 1026.8 - 0.0 - Cloudy 10 - - - -
27/07:30am 11.9 S 7 11 1026.6 - 0.0 - Cloudy 10 - - - -
27/07:00am 11.2 S 7 13 1026.4 - 0.0 - Cloudy 10 - - - -
27/06:30am 10.6 SSE 6 8 1026.1 - 0.0 - Cloudy 10 - - - -
27/06:00am 10.4 S 6 9 1025.8 - 0.0 - Cloudy 10 - - - -
27/05:30am 10.8 SSE 6 9 1025.6 - 0.0 - Cloudy 10 - - - -
27/05:00am 10.7 S 6 12 1025.3 - 0.0 - Cloudy 10 - - - -
27/04:30am 11.1 SSE 7 11 1025.0 - 0.0 - Cloudy 10 - - - -
27/04:00am 11.3 SSE 5 8 1024.7 - 0.0 - Cloudy 10 - - - -
27/03:30am 11.1 S 5 7 1024.6 - 0.0 - Cloudy 10 - - - -
27/03:00am 11.5 S 6 8 1024.5 - 0.0 - Cloudy 10 - - - -
27/02:30am 11.2 S 5 6 1024.5 - 0.0 - Cloudy 10 - - - -
27/02:00am 11.4 S 7 9 1024.7 - 0.0 - Cloudy 10 - - - -
27/01:30am 11.6 S 6 9 1024.9 - 0.0 - Cloudy 10 - - - -
27/01:00am 11.5 S 7 11 1025.1 - 0.0 - Cloudy 10 - - - -
27/12:30am 11.7 S 6 8 1025.1 - 0.0 - Cloudy 10 - - - -
27/12:00am 11.6 S 7 11 1025.1 - 0.0 - Cloudy 10 - - - -
 
Date/Time
EDT
Temp

°C
Wind Pressure Rain
since 9am
mm
Weather Cloud Vis
km
Sea
Height
m
Swell
Dir
 
Speed
knots
Gust
knots
hPa Trend Height
m
Period
s
Dir
26/11:30pm 11.6 S 7 13 1025.0 - 0.0 - Cloudy 10 - - - -
26/11:00pm 11.3 S 6 11 1025.0 - 0.0 - Partly cloudy 10 - - - -
26/10:30pm 11.5 S 8 14 1024.9 - 0.0 - Cloudy 10 - - - -
26/10:00pm 12.1 S 10 15 1024.7 - 0.0 - Cloudy 10 - - - -
26/09:30pm 11.9 SSW 11 16 1024.5 - 0.0 - Cloudy 10 - - - -
26/09:00pm 12.1 SSW 12 18 1024.3 - 0.0 - Mostly cloudy 10 - - - -
26/08:30pm 12.4 SSW 14 18 1024.0 - 0.0 - Cloudy 10 - - - -
26/08:00pm 12.5 SSW 10 15 1023.9 - 0.0 - Cloudy 10 - - - -
26/07:30pm 12.8 SSW 14 22 1023.7 - 0.0 - Cloudy 10 - - - -
26/07:00pm 13.0 SSW 15 19 1023.4 - 0.0 - Partly cloudy 10 - - - -
26/06:30pm 13.3 SSW 16 20 1023.1 - 0.0 - Partly cloudy 10 - - - -
26/06:00pm 13.7 SSW 16 21 1022.8 - 0.0 - Cloudy 10 - - - -
26/05:30pm 13.6 SSW 15 20 1022.6 - 0.0 - Partly cloudy 10 - - - -
26/05:00pm 14.0 SW 16 21 1022.5 - 0.0 - Partly cloudy 10 - - - -
26/04:30pm 14.5 SSW 16 21 1022.4 - 0.0 - Partly cloudy 10 - - - -
26/04:00pm 14.8 SW 17 24 1022.3 - 0.0 - Partly cloudy 10 - - - -
26/03:30pm 15.4 SW 15 21 1022.3 - 0.0 - - 10 - - - -
26/03:00pm 14.7 SW 17 23 1022.1 - 0.0 - - 10 - - - -
26/02:30pm 14.9 SW 15 22 1022.0 - 0.0 - Partly cloudy 10 - - - -
26/02:00pm 14.7 SSW 16 23 1022.0 - 0.0 - Partly cloudy 10 - - - -
26/01:30pm 14.9 SSW 16 24 1021.8 - 0.0 - Partly cloudy 10 - - - -
26/01:00pm 15.2 SSW 16 25 1021.8 - 0.0 - Partly cloudy 10 - - - -
26/12:30pm 14.9 SW 18 24 1021.6 - 0.0 - Partly cloudy 10 - - - -
26/12:00pm 14.7 SW 18 25 1021.6 - 0.0 - Mostly cloudy 10 - - - -
26/11:30am 14.5 SSW 17 22 1021.3 - 0.0 - Partly cloudy 10 - - - -
26/11:00am 14.4 SW 17 23 1021.1 - 0.0 - Partly cloudy 10 - - - -
26/10:30am 14.4 SW 17 24 1020.6 - 0.0 - Partly cloudy 10 - - - -
26/10:00am 14.2 SW 18 23 1020.5 - 0.0 - Partly cloudy 10 - - - -
26/09:30am 14.0 SW 18 23 1020.5 - 0.0 - Partly cloudy 10 - - - -
26/09:00am 13.5 SW 15 19 1020.1 - 2.8 - Mostly cloudy 10 - - - -
26/08:30am 12.8 SSW 15 20 1019.8 - 2.8 - Partly cloudy 10 - - - -
26/08:00am 12.7 SW 15 21 1019.4 - 2.8 - Partly cloudy 10 - - - -
26/07:39am 12.3 SW 12 17 1019.3 - 2.8 - Partly cloudy 10 - - - -
26/07:37am 12.1 SW 12 17 1019.2 - 2.8 - Partly cloudy 10 - - - -
26/07:30am 11.9 SW 12 17 1019.2 - 2.8 - Partly cloudy 7 - - - -
26/07:23am 11.8 SW 16 26 1019.1 - 2.8 - Partly cloudy 5 - - - -
26/07:11am 12.6 SSW 16 19 1018.8 - 2.4 - Partly cloudy 5 - - - -
26/07:09am 12.7 W 17 23 1018.7 - 2.4 - Partly cloudy 6 - - - -
26/07:00am 12.7 W 16 22 1018.6 - 2.4 - Partly cloudy 6 - - - -
26/06:43am 12.9 W 15 21 1018.4 - 2.4 - Partly cloudy 10 - - - -
26/06:30am 12.8 W 15 21 1018.3 - 2.4 - Partly cloudy 4 - - - -
26/06:06am 12.8 W 15 25 1018.0 - 0.6 - Partly cloudy 3 - - - -
26/06:01am 13.0 W 15 20 1018.0 - 0.2 - Partly cloudy 5 - - - -
26/06:00am 13.0 W 15 20 1018.0 - 0.2 Rain Cloudy 6 - - - -
26/05:58am 13.1 W 15 20 1018.0 - 0.2 - Partly cloudy 10 - - - -
26/05:30am 12.8 W 18 23 1017.9 - 0.2 - Partly cloudy 10 - - - -
26/05:00am 13.0 W 17 23 1017.7 - 0.2 - Partly cloudy 10 - - - -
26/04:30am 13.0 W 16 22 1017.6 - 0.2 - Partly cloudy 10 - - - -
26/04:19am 13.0 W 15 25 1017.6 - 0.2 - Partly cloudy 10 - - - -
26/04:00am 13.0 W 18 24 1017.7 - 0.2 - Partly cloudy 10 - - - -
26/03:30am 12.6 WNW 17 22 1017.7 - 0.2 - Partly cloudy 10 - - - -
26/03:06am 12.3 W 17 22 1017.9 - 0.2 - Partly cloudy 10 - - - -
26/03:00am 12.3 W 17 22 1018.0 - 0.2 Showers Cloudy 10 - - - -
26/02:49am 13.0 W 19 30 1018.1 - 0.2 - Partly cloudy 5 - - - -
26/02:46am 13.2 W 18 30 1018.0 - 0.2 - Partly cloudy 9 - - - -
26/02:30am 13.1 W 15 21 1018.0 - 0.2 - Partly cloudy 10 - - - -
26/02:00am 13.4 W 16 22 1018.1 - 0.2 - Partly cloudy 10 - - - -
26/01:30am 13.4 W 18 22 1018.4 - 0.2 - Partly cloudy 10 - - - -
26/01:00am 13.2 W 15 20 1018.8 - 0.2 - Partly cloudy 10 - - - -
26/12:30am 13.4 W 14 19 1018.9 - 0.2 - Partly cloudy 10 - - - -
26/12:00am 13.4 W 16 22 1019.0 - 0.2 - Cloudy 10 - - - -
 
Date/Time
EDT
Temp

°C
Wind Pressure Rain
since 9am
mm
Weather Cloud Vis
km
Sea
Height
m
Swell
Dir
 
Speed
knots
Gust
knots
hPa Trend Height
m
Period
s
Dir
25/11:30pm 13.1 W 15 21 1019.2 - 0.2 - Partly cloudy 10 - - - -
25/11:00pm 13.0 W 15 21 1019.4 - 0.2 - Partly cloudy 10 - - - -
25/10:30pm 13.1 W 15 22 1019.6 - 0.2 - Partly cloudy 10 - - - -
25/10:00pm 13.0 W 14 19 1019.6 - 0.2 - Partly cloudy 10 - - - -
25/09:30pm 13.0 W 13 18 1019.5 - 0.2 - Partly cloudy 10 - - - -
25/09:00pm 12.9 W 15 24 1019.5 - 0.2 - Mostly cloudy 10 - - - -
25/08:30pm 12.9 W 15 21 1019.2 - 0.2 - Partly cloudy 10 - - - -
25/08:00pm 12.9 W 15 21 1019.2 - 0.2 - Partly cloudy 10 - - - -
25/07:30pm 13.3 W 17 25 1018.9 - 0.2 - Partly cloudy 10 - - - -
25/07:00pm 13.7 W 17 25 1018.6 - 0.2 - Partly cloudy 10 - - - -
25/06:30pm 13.8 W 19 26 1018.2 - 0.2 - Partly cloudy 10 - - - -

Other Formats:

Comma delimited format used in spreadsheet applications
http://www.bom.gov.au/fwo/IDT60701/IDT60701.94850.axf

JavaScript Object Notation format (JSON) in row-major order
http://www.bom.gov.au/fwo/IDT60701/IDT60701.94850.json